sensor_id;sensor_type;location;lat;lon;timestamp;P1;durP1;ratioP1;P2;durP2;ratioP2
2860;SDS011;1438;50.922;6.704;2023-02-28T00:02:20;2.75;;;1.92;;
2860;SDS011;1438;50.922;6.704;2023-02-28T00:04:46;2.85;;;2.55;;
2860;SDS011;1438;50.922;6.704;2023-02-28T00:07:18;2.85;;;2.25;;
2860;SDS011;1438;50.922;6.704;2023-02-28T00:09:44;3.53;;;2.10;;
2860;SDS011;1438;50.922;6.704;2023-02-28T00:12:09;5.30;;;3.17;;
2860;SDS011;1438;50.922;6.704;2023-02-28T00:14:36;3.88;;;2.40;;
2860;SDS011;1438;50.922;6.704;2023-02-28T00:17:02;5.57;;;2.50;;
2860;SDS011;1438;50.922;6.704;2023-02-28T00:19:28;4.55;;;2.92;;
2860;SDS011;1438;50.922;6.704;2023-02-28T00:21:54;5.78;;;2.97;;
2860;SDS011;1438;50.922;6.704;2023-02-28T00:24:20;5.20;;;2.63;;
2860;SDS011;1438;50.922;6.704;2023-02-28T00:26:46;3.65;;;2.33;;
2860;SDS011;1438;50.922;6.704;2023-02-28T00:29:11;3.80;;;2.40;;
2860;SDS011;1438;50.922;6.704;2023-02-28T00:31:37;8.30;;;2.90;;
2860;SDS011;1438;50.922;6.704;2023-02-28T00:34:03;5.90;;;2.63;;
2860;SDS011;1438;50.922;6.704;2023-02-28T00:36:29;4.87;;;2.70;;
2860;SDS011;1438;50.922;6.704;2023-02-28T00:38:55;8.70;;;2.20;;
2860;SDS011;1438;50.922;6.704;2023-02-28T00:41:21;4.25;;;2.35;;
2860;SDS011;1438;50.922;6.704;2023-02-28T00:43:47;4.00;;;2.80;;
2860;SDS011;1438;50.922;6.704;2023-02-28T00:46:13;2.72;;;2.25;;
2860;SDS011;1438;50.922;6.704;2023-02-28T00:48:39;2.97;;;2.45;;
2860;SDS011;1438;50.922;6.704;2023-02-28T00:51:05;4.25;;;2.85;;
2860;SDS011;1438;50.922;6.704;2023-02-28T00:53:31;3.95;;;2.67;;
2860;SDS011;1438;50.922;6.704;2023-02-28T00:55:57;5.22;;;2.92;;
2860;SDS011;1438;50.922;6.704;2023-02-28T00:58:23;4.60;;;2.28;;
2860;SDS011;1438;50.922;6.704;2023-02-28T01:00:50;5.60;;;2.92;;
2860;SDS011;1438;50.922;6.704;2023-02-28T01:03:17;4.65;;;3.22;;
2860;SDS011;1438;50.922;6.704;2023-02-28T01:05:43;4.28;;;2.85;;
2860;SDS011;1438;50.922;6.704;2023-02-28T01:08:09;7.60;;;2.65;;
2860;SDS011;1438;50.922;6.704;2023-02-28T01:10:35;4.75;;;2.75;;
2860;SDS011;1438;50.922;6.704;2023-02-28T01:13:02;4.55;;;2.90;;
2860;SDS011;1438;50.922;6.704;2023-02-28T01:15:28;4.13;;;3.08;;
2860;SDS011;1438;50.922;6.704;2023-02-28T01:17:54;3.53;;;2.58;;
2860;SDS011;1438;50.922;6.704;2023-02-28T01:20:20;4.07;;;3.03;;
2860;SDS011;1438;50.922;6.704;2023-02-28T01:22:46;5.53;;;2.65;;
2860;SDS011;1438;50.922;6.704;2023-02-28T01:25:12;3.58;;;2.97;;
2860;SDS011;1438;50.922;6.704;2023-02-28T01:27:38;4.07;;;3.20;;
2860;SDS011;1438;50.922;6.704;2023-02-28T01:30:04;3.65;;;2.20;;
2860;SDS011;1438;50.922;6.704;2023-02-28T01:32:31;3.67;;;2.50;;
2860;SDS011;1438;50.922;6.704;2023-02-28T01:34:56;4.63;;;2.63;;
2860;SDS011;1438;50.922;6.704;2023-02-28T01:37:22;7.20;;;2.50;;
2860;SDS011;1438;50.922;6.704;2023-02-28T01:39:48;5.75;;;2.72;;
2860;SDS011;1438;50.922;6.704;2023-02-28T01:42:14;4.72;;;2.83;;
2860;SDS011;1438;50.922;6.704;2023-02-28T01:45:01;2.47;;;2.28;;
2860;SDS011;1438;50.922;6.704;2023-02-28T01:47:45;2.88;;;2.60;;
2860;SDS011;1438;50.922;6.704;2023-02-28T01:50:14;6.43;;;2.95;;
2860;SDS011;1438;50.922;6.704;2023-02-28T01:52:41;3.67;;;2.45;;
2860;SDS011;1438;50.922;6.704;2023-02-28T01:55:08;3.92;;;3.22;;
2860;SDS011;1438;50.922;6.704;2023-02-28T01:57:39;4.43;;;2.70;;
2860;SDS011;1438;50.922;6.704;2023-02-28T02:00:13;5.97;;;2.80;;
2860;SDS011;1438;50.922;6.704;2023-02-28T02:02:43;9.20;;;2.90;;
2860;SDS011;1438;50.922;6.704;2023-02-28T02:05:16;2.60;;;2.40;;
2860;SDS011;1438;50.922;6.704;2023-02-28T02:07:43;4.65;;;2.80;;
2860;SDS011;1438;50.922;6.704;2023-02-28T02:10:17;3.00;;;2.10;;
2860;SDS011;1438;50.922;6.704;2023-02-28T02:15:33;2.92;;;2.20;;
2860;SDS011;1438;50.922;6.704;2023-02-28T02:18:04;7.85;;;2.50;;
2860;SDS011;1438;50.922;6.704;2023-02-28T02:25:54;2.63;;;2.13;;
2860;SDS011;1438;50.922;6.704;2023-02-28T02:33:44;7.18;;;2.58;;
2860;SDS011;1438;50.922;6.704;2023-02-28T02:36:23;3.95;;;2.65;;
2860;SDS011;1438;50.922;6.704;2023-02-28T02:39:39;6.22;;;2.60;;
2860;SDS011;1438;50.922;6.704;2023-02-28T02:41:43;5.03;;;2.40;;
2860;SDS011;1438;50.922;6.704;2023-02-28T02:44:21;7.30;;;2.47;;
2860;SDS011;1438;50.922;6.704;2023-02-28T02:46:50;3.90;;;2.42;;
2860;SDS011;1438;50.922;6.704;2023-02-28T02:52:13;2.67;;;2.45;;
2860;SDS011;1438;50.922;6.704;2023-02-28T02:54:40;3.25;;;2.17;;
2860;SDS011;1438;50.922;6.704;2023-02-28T02:57:11;4.20;;;2.60;;
2860;SDS011;1438;50.922;6.704;2023-02-28T02:59:41;3.42;;;2.55;;
2860;SDS011;1438;50.922;6.704;2023-02-28T03:02:08;3.15;;;2.25;;
2860;SDS011;1438;50.922;6.704;2023-02-28T03:04:38;4.63;;;2.85;;
2860;SDS011;1438;50.922;6.704;2023-02-28T03:07:06;5.38;;;2.70;;
2860;SDS011;1438;50.922;6.704;2023-02-28T03:09:32;7.65;;;4.15;;
2860;SDS011;1438;50.922;6.704;2023-02-28T03:11:58;6.68;;;2.92;;
2860;SDS011;1438;50.922;6.704;2023-02-28T03:14:28;3.95;;;2.80;;
2860;SDS011;1438;50.922;6.704;2023-02-28T03:22:24;4.75;;;3.80;;
2860;SDS011;1438;50.922;6.704;2023-02-28T03:30:00;3.83;;;2.70;;
2860;SDS011;1438;50.922;6.704;2023-02-28T03:32:28;3.83;;;2.83;;
2860;SDS011;1438;50.922;6.704;2023-02-28T03:35:09;3.40;;;2.42;;
2860;SDS011;1438;50.922;6.704;2023-02-28T03:37:38;3.28;;;2.40;;
2860;SDS011;1438;50.922;6.704;2023-02-28T03:40:06;4.28;;;2.20;;
2860;SDS011;1438;50.922;6.704;2023-02-28T03:42:36;3.78;;;2.60;;
2860;SDS011;1438;50.922;6.704;2023-02-28T03:45:25;3.58;;;2.70;;
2860;SDS011;1438;50.922;6.704;2023-02-28T03:47:53;3.67;;;3.05;;
2860;SDS011;1438;50.922;6.704;2023-02-28T03:50:21;3.42;;;2.25;;
2860;SDS011;1438;50.922;6.704;2023-02-28T03:52:53;3.75;;;2.88;;
2860;SDS011;1438;50.922;6.704;2023-02-28T03:55:25;4.35;;;3.20;;
2860;SDS011;1438;50.922;6.704;2023-02-28T03:57:54;4.68;;;2.70;;
2860;SDS011;1438;50.922;6.704;2023-02-28T04:00:27;5.35;;;3.03;;
2860;SDS011;1438;50.922;6.704;2023-02-28T04:02:54;3.40;;;3.10;;
2860;SDS011;1438;50.922;6.704;2023-02-28T04:05:21;3.20;;;2.90;;
2860;SDS011;1438;50.922;6.704;2023-02-28T04:07:47;4.45;;;3.30;;
2860;SDS011;1438;50.922;6.704;2023-02-28T04:10:13;5.43;;;3.03;;
2860;SDS011;1438;50.922;6.704;2023-02-28T04:12:40;6.80;;;3.40;;
2860;SDS011;1438;50.922;6.704;2023-02-28T04:15:06;5.22;;;3.50;;
2860;SDS011;1438;50.922;6.704;2023-02-28T04:17:32;3.80;;;3.15;;
2860;SDS011;1438;50.922;6.704;2023-02-28T04:19:58;5.88;;;3.75;;
2860;SDS011;1438;50.922;6.704;2023-02-28T04:22:24;4.50;;;3.40;;
2860;SDS011;1438;50.922;6.704;2023-02-28T04:24:53;7.32;;;3.10;;
2860;SDS011;1438;50.922;6.704;2023-02-28T04:27:20;6.63;;;3.70;;
2860;SDS011;1438;50.922;6.704;2023-02-28T04:29:46;3.85;;;2.88;;
2860;SDS011;1438;50.922;6.704;2023-02-28T04:32:12;6.03;;;3.30;;
2860;SDS011;1438;50.922;6.704;2023-02-28T04:34:38;6.13;;;3.45;;
2860;SDS011;1438;50.922;6.704;2023-02-28T04:37:05;4.82;;;3.70;;
2860;SDS011;1438;50.922;6.704;2023-02-28T04:39:34;4.63;;;3.15;;
2860;SDS011;1438;50.922;6.704;2023-02-28T04:42:00;5.20;;;3.10;;
2860;SDS011;1438;50.922;6.704;2023-02-28T04:44:26;3.75;;;3.22;;
2860;SDS011;1438;50.922;6.704;2023-02-28T04:46:52;4.13;;;3.23;;
2860;SDS011;1438;50.922;6.704;2023-02-28T04:49:18;4.70;;;3.17;;
2860;SDS011;1438;50.922;6.704;2023-02-28T04:51:44;3.30;;;3.00;;
2860;SDS011;1438;50.922;6.704;2023-02-28T04:54:10;4.40;;;3.40;;
2860;SDS011;1438;50.922;6.704;2023-02-28T04:56:36;5.15;;;3.42;;
2860;SDS011;1438;50.922;6.704;2023-02-28T04:59:02;4.82;;;3.63;;
2860;SDS011;1438;50.922;6.704;2023-02-28T05:01:30;6.90;;;4.13;;
2860;SDS011;1438;50.922;6.704;2023-02-28T05:03:57;20.20;;;4.43;;
2860;SDS011;1438;50.922;6.704;2023-02-28T05:06:24;4.85;;;4.00;;
2860;SDS011;1438;50.922;6.704;2023-02-28T05:08:51;4.15;;;3.45;;
2860;SDS011;1438;50.922;6.704;2023-02-28T05:11:28;3.00;;;2.70;;
2860;SDS011;1438;50.922;6.704;2023-02-28T05:13:54;3.53;;;3.22;;
2860;SDS011;1438;50.922;6.704;2023-02-28T05:16:20;5.35;;;4.10;;
2860;SDS011;1438;50.922;6.704;2023-02-28T05:18:46;4.55;;;3.83;;
2860;SDS011;1438;50.922;6.704;2023-02-28T05:21:32;5.70;;;4.55;;
2860;SDS011;1438;50.922;6.704;2023-02-28T05:24:03;11.48;;;4.07;;
2860;SDS011;1438;50.922;6.704;2023-02-28T05:26:30;4.68;;;3.55;;
2860;SDS011;1438;50.922;6.704;2023-02-28T05:28:56;5.10;;;3.30;;
2860;SDS011;1438;50.922;6.704;2023-02-28T05:31:22;8.07;;;3.85;;
2860;SDS011;1438;50.922;6.704;2023-02-28T05:33:48;5.75;;;2.75;;
2860;SDS011;1438;50.922;6.704;2023-02-28T05:36:14;4.70;;;4.05;;
2860;SDS011;1438;50.922;6.704;2023-02-28T05:38:40;4.00;;;3.25;;
2860;SDS011;1438;50.922;6.704;2023-02-28T05:41:07;4.20;;;3.17;;
2860;SDS011;1438;50.922;6.704;2023-02-28T05:43:33;5.25;;;3.40;;
2860;SDS011;1438;50.922;6.704;2023-02-28T05:45:59;5.45;;;3.20;;
2860;SDS011;1438;50.922;6.704;2023-02-28T05:48:27;4.10;;;3.70;;
2860;SDS011;1438;50.922;6.704;2023-02-28T05:50:53;5.97;;;3.80;;
2860;SDS011;1438;50.922;6.704;2023-02-28T05:53:19;4.43;;;3.13;;
2860;SDS011;1438;50.922;6.704;2023-02-28T05:55:45;4.82;;;3.95;;
2860;SDS011;1438;50.922;6.704;2023-02-28T05:58:11;4.90;;;3.37;;
2860;SDS011;1438;50.922;6.704;2023-02-28T06:00:37;4.40;;;3.05;;
2860;SDS011;1438;50.922;6.704;2023-02-28T06:03:03;3.67;;;3.08;;
2860;SDS011;1438;50.922;6.704;2023-02-28T06:05:29;3.38;;;3.08;;
2860;SDS011;1438;50.922;6.704;2023-02-28T06:07:55;4.32;;;3.70;;
2860;SDS011;1438;50.922;6.704;2023-02-28T06:10:21;5.82;;;3.90;;
2860;SDS011;1438;50.922;6.704;2023-02-28T06:12:47;5.45;;;4.18;;
2860;SDS011;1438;50.922;6.704;2023-02-28T06:15:13;6.70;;;3.80;;
2860;SDS011;1438;50.922;6.704;2023-02-28T06:17:40;4.63;;;3.55;;
2860;SDS011;1438;50.922;6.704;2023-02-28T06:20:07;10.18;;;4.80;;
2860;SDS011;1438;50.922;6.704;2023-02-28T06:22:33;8.85;;;4.90;;
2860;SDS011;1438;50.922;6.704;2023-02-28T06:24:59;4.38;;;3.20;;
2860;SDS011;1438;50.922;6.704;2023-02-28T06:27:25;8.27;;;4.20;;
2860;SDS011;1438;50.922;6.704;2023-02-28T06:29:53;5.85;;;3.85;;
2860;SDS011;1438;50.922;6.704;2023-02-28T06:32:20;3.40;;;3.10;;
2860;SDS011;1438;50.922;6.704;2023-02-28T06:34:46;3.70;;;2.87;;
2860;SDS011;1438;50.922;6.704;2023-02-28T06:37:12;4.93;;;3.60;;
2860;SDS011;1438;50.922;6.704;2023-02-28T06:39:38;4.00;;;3.38;;
2860;SDS011;1438;50.922;6.704;2023-02-28T06:42:04;3.35;;;2.95;;
2860;SDS011;1438;50.922;6.704;2023-02-28T06:44:30;4.47;;;3.38;;
2860;SDS011;1438;50.922;6.704;2023-02-28T06:47:03;7.75;;;4.05;;
2860;SDS011;1438;50.922;6.704;2023-02-28T06:49:33;4.90;;;3.15;;
2860;SDS011;1438;50.922;6.704;2023-02-28T06:52:00;4.63;;;3.70;;
2860;SDS011;1438;50.922;6.704;2023-02-28T06:54:26;3.88;;;3.10;;
2860;SDS011;1438;50.922;6.704;2023-02-28T06:56:52;5.18;;;3.17;;
2860;SDS011;1438;50.922;6.704;2023-02-28T06:59:19;5.60;;;3.65;;
2860;SDS011;1438;50.922;6.704;2023-02-28T07:01:45;7.85;;;3.90;;
2860;SDS011;1438;50.922;6.704;2023-02-28T07:04:11;3.42;;;3.00;;
2860;SDS011;1438;50.922;6.704;2023-02-28T07:06:38;3.83;;;3.45;;
2860;SDS011;1438;50.922;6.704;2023-02-28T07:09:04;4.40;;;3.60;;
2860;SDS011;1438;50.922;6.704;2023-02-28T07:11:30;5.57;;;3.30;;
2860;SDS011;1438;50.922;6.704;2023-02-28T07:13:56;5.70;;;3.67;;
2860;SDS011;1438;50.922;6.704;2023-02-28T07:16:24;5.70;;;3.40;;
2860;SDS011;1438;50.922;6.704;2023-02-28T07:18:51;8.55;;;4.28;;
2860;SDS011;1438;50.922;6.704;2023-02-28T07:21:18;4.85;;;3.95;;
2860;SDS011;1438;50.922;6.704;2023-02-28T07:23:44;6.80;;;4.22;;
2860;SDS011;1438;50.922;6.704;2023-02-28T07:26:14;3.40;;;2.85;;
2860;SDS011;1438;50.922;6.704;2023-02-28T07:28:41;5.97;;;3.60;;
2860;SDS011;1438;50.922;6.704;2023-02-28T07:31:10;7.80;;;3.90;;
2860;SDS011;1438;50.922;6.704;2023-02-28T07:33:36;4.65;;;3.25;;
2860;SDS011;1438;50.922;6.704;2023-02-28T07:36:09;7.72;;;3.80;;
2860;SDS011;1438;50.922;6.704;2023-02-28T07:38:40;3.97;;;2.95;;
2860;SDS011;1438;50.922;6.704;2023-02-28T07:41:06;3.50;;;3.20;;
2860;SDS011;1438;50.922;6.704;2023-02-28T07:43:33;6.75;;;3.30;;
2860;SDS011;1438;50.922;6.704;2023-02-28T07:46:09;4.97;;;2.95;;
2860;SDS011;1438;50.922;6.704;2023-02-28T07:48:35;6.70;;;3.40;;
2860;SDS011;1438;50.922;6.704;2023-02-28T07:51:02;2.92;;;2.53;;
2860;SDS011;1438;50.922;6.704;2023-02-28T07:53:28;5.10;;;2.70;;
2860;SDS011;1438;50.922;6.704;2023-02-28T07:55:55;3.75;;;3.00;;
2860;SDS011;1438;50.922;6.704;2023-02-28T07:58:21;4.05;;;2.80;;
2860;SDS011;1438;50.922;6.704;2023-02-28T08:00:47;3.75;;;3.05;;
2860;SDS011;1438;50.922;6.704;2023-02-28T08:03:13;3.67;;;3.03;;
2860;SDS011;1438;50.922;6.704;2023-02-28T08:05:39;3.78;;;2.85;;
2860;SDS011;1438;50.922;6.704;2023-02-28T08:08:06;2.22;;;2.03;;
2860;SDS011;1438;50.922;6.704;2023-02-28T08:10:32;2.70;;;2.42;;
2860;SDS011;1438;50.922;6.704;2023-02-28T08:12:58;3.95;;;2.88;;
2860;SDS011;1438;50.922;6.704;2023-02-28T08:15:24;3.37;;;2.53;;
2860;SDS011;1438;50.922;6.704;2023-02-28T08:17:50;3.78;;;2.15;;
2860;SDS011;1438;50.922;6.704;2023-02-28T08:20:16;2.30;;;2.10;;
2860;SDS011;1438;50.922;6.704;2023-02-28T08:22:42;3.47;;;2.80;;
2860;SDS011;1438;50.922;6.704;2023-02-28T08:25:08;3.10;;;2.40;;
2860;SDS011;1438;50.922;6.704;2023-02-28T08:27:34;3.05;;;1.80;;
2860;SDS011;1438;50.922;6.704;2023-02-28T08:30:00;1.98;;;1.83;;
2860;SDS011;1438;50.922;6.704;2023-02-28T08:32:28;1.80;;;1.70;;
2860;SDS011;1438;50.922;6.704;2023-02-28T08:34:54;5.28;;;2.42;;
2860;SDS011;1438;50.922;6.704;2023-02-28T08:37:20;8.20;;;2.20;;
2860;SDS011;1438;50.922;6.704;2023-02-28T08:39:46;3.15;;;1.95;;
2860;SDS011;1438;50.922;6.704;2023-02-28T08:42:12;1.90;;;1.77;;
2860;SDS011;1438;50.922;6.704;2023-02-28T08:44:38;3.70;;;1.90;;
2860;SDS011;1438;50.922;6.704;2023-02-28T08:47:05;2.33;;;1.92;;
2860;SDS011;1438;50.922;6.704;2023-02-28T08:49:31;1.90;;;1.60;;
2860;SDS011;1438;50.922;6.704;2023-02-28T08:51:57;5.15;;;2.30;;
2860;SDS011;1438;50.922;6.704;2023-02-28T08:54:23;1.77;;;1.67;;
2860;SDS011;1438;50.922;6.704;2023-02-28T08:56:49;1.70;;;1.60;;
2860;SDS011;1438;50.922;6.704;2023-02-28T08:59:15;1.60;;;1.50;;
2860;SDS011;1438;50.922;6.704;2023-02-28T09:01:41;3.15;;;1.45;;
2860;SDS011;1438;50.922;6.704;2023-02-28T09:04:08;1.60;;;1.50;;
2860;SDS011;1438;50.922;6.704;2023-02-28T09:06:36;2.17;;;1.70;;
2860;SDS011;1438;50.922;6.704;2023-02-28T09:09:02;2.85;;;2.10;;
2860;SDS011;1438;50.922;6.704;2023-02-28T09:11:30;3.33;;;1.70;;
2860;SDS011;1438;50.922;6.704;2023-02-28T09:13:57;4.50;;;2.03;;
2860;SDS011;1438;50.922;6.704;2023-02-28T09:16:25;1.45;;;1.35;;
2860;SDS011;1438;50.922;6.704;2023-02-28T09:18:51;2.70;;;1.08;;
2860;SDS011;1438;50.922;6.704;2023-02-28T09:21:17;1.25;;;1.15;;
2860;SDS011;1438;50.922;6.704;2023-02-28T09:23:44;1.60;;;1.42;;
2860;SDS011;1438;50.922;6.704;2023-02-28T09:26:14;3.28;;;1.27;;
2860;SDS011;1438;50.922;6.704;2023-02-28T09:28:41;1.40;;;1.20;;
2860;SDS011;1438;50.922;6.704;2023-02-28T09:31:10;1.60;;;1.50;;
2860;SDS011;1438;50.922;6.704;2023-02-28T09:33:37;1.90;;;1.60;;
2860;SDS011;1438;50.922;6.704;2023-02-28T09:36:03;2.35;;;1.30;;
2860;SDS011;1438;50.922;6.704;2023-02-28T09:38:29;1.58;;;1.20;;
2860;SDS011;1438;50.922;6.704;2023-02-28T09:40:57;1.73;;;1.58;;
2860;SDS011;1438;50.922;6.704;2023-02-28T09:43:25;1.50;;;1.30;;
2860;SDS011;1438;50.922;6.704;2023-02-28T09:45:54;2.17;;;1.40;;
2860;SDS011;1438;50.922;6.704;2023-02-28T09:48:25;1.83;;;1.60;;
2860;SDS011;1438;50.922;6.704;2023-02-28T09:50:55;4.68;;;1.30;;
2860;SDS011;1438;50.922;6.704;2023-02-28T09:53:27;4.72;;;1.60;;
2860;SDS011;1438;50.922;6.704;2023-02-28T09:55:59;3.30;;;1.50;;
2860;SDS011;1438;50.922;6.704;2023-02-28T10:00:57;2.30;;;1.33;;
2860;SDS011;1438;50.922;6.704;2023-02-28T10:03:32;1.77;;;1.67;;
2860;SDS011;1438;50.922;6.704;2023-02-28T10:06:07;2.28;;;1.45;;
2860;SDS011;1438;50.922;6.704;2023-02-28T10:08:38;3.70;;;1.27;;
2860;SDS011;1438;50.922;6.704;2023-02-28T10:11:07;3.88;;;1.40;;
2860;SDS011;1438;50.922;6.704;2023-02-28T10:18:51;4.20;;;1.95;;
2860;SDS011;1438;50.922;6.704;2023-02-28T10:21:21;1.50;;;1.40;;
2860;SDS011;1438;50.922;6.704;2023-02-28T10:23:49;1.60;;;1.00;;
2860;SDS011;1438;50.922;6.704;2023-02-28T10:26:18;1.80;;;1.70;;
2860;SDS011;1438;50.922;6.704;2023-02-28T10:28:44;3.38;;;2.00;;
2860;SDS011;1438;50.922;6.704;2023-02-28T10:31:11;2.67;;;1.83;;
2860;SDS011;1438;50.922;6.704;2023-02-28T10:33:41;2.57;;;1.43;;
2860;SDS011;1438;50.922;6.704;2023-02-28T10:36:08;2.23;;;1.60;;
2860;SDS011;1438;50.922;6.704;2023-02-28T10:38:38;1.93;;;1.57;;
2860;SDS011;1438;50.922;6.704;2023-02-28T10:41:05;2.13;;;1.73;;
2860;SDS011;1438;50.922;6.704;2023-02-28T10:43:32;1.67;;;1.40;;
2860;SDS011;1438;50.922;6.704;2023-02-28T10:45:59;2.33;;;1.33;;
2860;SDS011;1438;50.922;6.704;2023-02-28T10:48:36;2.20;;;1.60;;
2860;SDS011;1438;50.922;6.704;2023-02-28T10:51:02;1.37;;;1.27;;
2860;SDS011;1438;50.922;6.704;2023-02-28T10:56:00;1.67;;;1.40;;
2860;SDS011;1438;50.922;6.704;2023-02-28T11:01:14;2.73;;;1.90;;
2860;SDS011;1438;50.922;6.704;2023-02-28T11:03:41;1.90;;;1.53;;
2860;SDS011;1438;50.922;6.704;2023-02-28T11:06:08;2.27;;;1.30;;
2860;SDS011;1438;50.922;6.704;2023-02-28T11:08:48;1.60;;;1.37;;
2860;SDS011;1438;50.922;6.704;2023-02-28T11:11:15;1.83;;;1.63;;
2860;SDS011;1438;50.922;6.704;2023-02-28T11:13:42;1.83;;;1.73;;
2860;SDS011;1438;50.922;6.704;2023-02-28T11:16:10;1.80;;;1.40;;
2860;SDS011;1438;50.922;6.704;2023-02-28T11:21:16;2.40;;;1.47;;
2860;SDS011;1438;50.922;6.704;2023-02-28T11:23:44;2.80;;;1.60;;
2860;SDS011;1438;50.922;6.704;2023-02-28T11:26:10;2.07;;;1.50;;
2860;SDS011;1438;50.922;6.704;2023-02-28T11:28:40;6.00;;;2.30;;
2860;SDS011;1438;50.922;6.704;2023-02-28T11:31:14;1.80;;;1.57;;
2860;SDS011;1438;50.922;6.704;2023-02-28T11:33:54;2.93;;;2.07;;
2860;SDS011;1438;50.922;6.704;2023-02-28T11:38:49;1.67;;;1.57;;
2860;SDS011;1438;50.922;6.704;2023-02-28T11:41:26;2.30;;;1.57;;
2860;SDS011;1438;50.922;6.704;2023-02-28T11:48:58;2.87;;;2.17;;
2860;SDS011;1438;50.922;6.704;2023-02-28T11:51:28;2.10;;;1.70;;
2860;SDS011;1438;50.922;6.704;2023-02-28T11:56:58;2.10;;;1.70;;
2860;SDS011;1438;50.922;6.704;2023-02-28T12:05:24;2.40;;;1.70;;
2860;SDS011;1438;50.922;6.704;2023-02-28T12:10:24;2.60;;;1.50;;
2860;SDS011;1438;50.922;6.704;2023-02-28T12:15:35;1.80;;;1.70;;
2860;SDS011;1438;50.922;6.704;2023-02-28T12:20:42;1.80;;;1.70;;
2860;SDS011;1438;50.922;6.704;2023-02-28T12:28:10;2.30;;;2.10;;
2860;SDS011;1438;50.922;6.704;2023-02-28T12:30:38;2.53;;;2.30;;
2860;SDS011;1438;50.922;6.704;2023-02-28T12:33:13;3.20;;;2.20;;
2860;SDS011;1438;50.922;6.704;2023-02-28T12:35:47;3.73;;;2.10;;
2860;SDS011;1438;50.922;6.704;2023-02-28T12:38:19;3.33;;;1.90;;
2860;SDS011;1438;50.922;6.704;2023-02-28T12:40:54;3.83;;;2.33;;
2860;SDS011;1438;50.922;6.704;2023-02-28T12:43:22;3.13;;;2.20;;
2860;SDS011;1438;50.922;6.704;2023-02-28T12:45:52;4.88;;;2.20;;
2860;SDS011;1438;50.922;6.704;2023-02-28T12:48:21;4.07;;;2.50;;
2860;SDS011;1438;50.922;6.704;2023-02-28T12:50:49;3.35;;;2.30;;
2860;SDS011;1438;50.922;6.704;2023-02-28T12:53:31;2.57;;;2.30;;
2860;SDS011;1438;50.922;6.704;2023-02-28T12:56:07;2.63;;;2.43;;
2860;SDS011;1438;50.922;6.704;2023-02-28T12:58:41;2.37;;;2.00;;
2860;SDS011;1438;50.922;6.704;2023-02-28T13:09:10;2.40;;;2.20;;
2860;SDS011;1438;50.922;6.704;2023-02-28T13:14:23;2.40;;;2.17;;
2860;SDS011;1438;50.922;6.704;2023-02-28T13:19:22;2.53;;;2.33;;
2860;SDS011;1438;50.922;6.704;2023-02-28T13:21:48;3.35;;;2.40;;
2860;SDS011;1438;50.922;6.704;2023-02-28T13:29:38;3.13;;;2.45;;
2860;SDS011;1438;50.922;6.704;2023-02-28T13:34:36;2.20;;;2.00;;
2860;SDS011;1438;50.922;6.704;2023-02-28T13:47:27;3.77;;;2.53;;
2860;SDS011;1438;50.922;6.704;2023-02-28T13:49:53;2.60;;;2.40;;
2860;SDS011;1438;50.922;6.704;2023-02-28T13:52:20;2.30;;;2.10;;
2860;SDS011;1438;50.922;6.704;2023-02-28T13:54:58;3.80;;;2.70;;
2860;SDS011;1438;50.922;6.704;2023-02-28T14:05:06;3.10;;;2.80;;
2860;SDS011;1438;50.922;6.704;2023-02-28T14:07:42;3.00;;;2.70;;
2860;SDS011;1438;50.922;6.704;2023-02-28T14:10:15;2.80;;;2.47;;
2860;SDS011;1438;50.922;6.704;2023-02-28T14:15:41;3.47;;;2.40;;
2860;SDS011;1438;50.922;6.704;2023-02-28T14:18:43;2.53;;;2.30;;
2860;SDS011;1438;50.922;6.704;2023-02-28T14:23:55;3.20;;;2.90;;
2860;SDS011;1438;50.922;6.704;2023-02-28T14:31:58;4.07;;;2.70;;
2860;SDS011;1438;50.922;6.704;2023-02-28T14:34:26;3.13;;;2.37;;
2860;SDS011;1438;50.922;6.704;2023-02-28T14:36:58;3.90;;;2.80;;
2860;SDS011;1438;50.922;6.704;2023-02-28T14:39:25;3.37;;;3.00;;
2860;SDS011;1438;50.922;6.704;2023-02-28T14:41:52;3.30;;;2.53;;
2860;SDS011;1438;50.922;6.704;2023-02-28T14:44:22;3.73;;;2.90;;
2860;SDS011;1438;50.922;6.704;2023-02-28T14:46:59;2.80;;;2.60;;
2860;SDS011;1438;50.922;6.704;2023-02-28T14:49:44;2.63;;;2.20;;
2860;SDS011;1438;50.922;6.704;2023-02-28T14:52:16;2.72;;;2.50;;
2860;SDS011;1438;50.922;6.704;2023-02-28T14:54:43;4.63;;;2.43;;
2860;SDS011;1438;50.922;6.704;2023-02-28T14:57:29;6.17;;;2.73;;
2860;SDS011;1438;50.922;6.704;2023-02-28T15:02:48;2.70;;;2.50;;
2860;SDS011;1438;50.922;6.704;2023-02-28T15:07:43;3.40;;;3.03;;
2860;SDS011;1438;50.922;6.704;2023-02-28T15:10:20;2.60;;;2.40;;
2860;SDS011;1438;50.922;6.704;2023-02-28T15:12:51;2.35;;;2.05;;
2860;SDS011;1438;50.922;6.704;2023-02-28T15:15:18;2.17;;;2.00;;
2860;SDS011;1438;50.922;6.704;2023-02-28T15:17:46;4.43;;;2.80;;
2860;SDS011;1438;50.922;6.704;2023-02-28T15:20:12;5.93;;;2.37;;
2860;SDS011;1438;50.922;6.704;2023-02-28T15:22:39;3.07;;;2.53;;
2860;SDS011;1438;50.922;6.704;2023-02-28T15:25:05;2.90;;;2.50;;
2860;SDS011;1438;50.922;6.704;2023-02-28T15:27:33;3.03;;;2.67;;
2860;SDS011;1438;50.922;6.704;2023-02-28T15:30:00;3.23;;;2.80;;
2860;SDS011;1438;50.922;6.704;2023-02-28T15:32:31;4.30;;;2.40;;
2860;SDS011;1438;50.922;6.704;2023-02-28T15:34:58;2.97;;;2.70;;
2860;SDS011;1438;50.922;6.704;2023-02-28T15:42:37;5.03;;;3.07;;
2860;SDS011;1438;50.922;6.704;2023-02-28T15:45:04;3.63;;;2.47;;
2860;SDS011;1438;50.922;6.704;2023-02-28T15:47:30;3.53;;;3.13;;
2860;SDS011;1438;50.922;6.704;2023-02-28T15:52:29;4.00;;;2.20;;
2860;SDS011;1438;50.922;6.704;2023-02-28T15:54:59;3.97;;;2.72;;
2860;SDS011;1438;50.922;6.704;2023-02-28T15:57:33;4.30;;;2.97;;
2860;SDS011;1438;50.922;6.704;2023-02-28T16:00:00;3.00;;;2.70;;
2860;SDS011;1438;50.922;6.704;2023-02-28T16:02:38;3.53;;;3.23;;
2860;SDS011;1438;50.922;6.704;2023-02-28T16:07:37;3.10;;;2.47;;
2860;SDS011;1438;50.922;6.704;2023-02-28T16:10:04;3.30;;;3.00;;
2860;SDS011;1438;50.922;6.704;2023-02-28T16:12:31;4.32;;;3.53;;
2860;SDS011;1438;50.922;6.704;2023-02-28T16:14:59;7.30;;;3.40;;
2860;SDS011;1438;50.922;6.704;2023-02-28T16:17:28;3.60;;;3.30;;
2860;SDS011;1438;50.922;6.704;2023-02-28T16:19:54;4.43;;;3.38;;
2860;SDS011;1438;50.922;6.704;2023-02-28T16:22:21;4.03;;;2.80;;
2860;SDS011;1438;50.922;6.704;2023-02-28T16:24:47;3.40;;;3.10;;
2860;SDS011;1438;50.922;6.704;2023-02-28T16:27:17;7.27;;;3.47;;
2860;SDS011;1438;50.922;6.704;2023-02-28T16:29:44;4.20;;;3.70;;
2860;SDS011;1438;50.922;6.704;2023-02-28T16:32:11;10.27;;;4.93;;
2860;SDS011;1438;50.922;6.704;2023-02-28T16:34:38;4.47;;;4.07;;
2860;SDS011;1438;50.922;6.704;2023-02-28T16:37:05;4.37;;;3.70;;
2860;SDS011;1438;50.922;6.704;2023-02-28T16:39:35;5.05;;;3.65;;
2860;SDS011;1438;50.922;6.704;2023-02-28T16:42:01;6.00;;;4.60;;
2860;SDS011;1438;50.922;6.704;2023-02-28T16:44:32;6.32;;;4.35;;
2860;SDS011;1438;50.922;6.704;2023-02-28T16:47:02;5.82;;;4.05;;
2860;SDS011;1438;50.922;6.704;2023-02-28T16:49:28;5.55;;;4.53;;
2860;SDS011;1438;50.922;6.704;2023-02-28T16:51:54;17.08;;;7.25;;
2860;SDS011;1438;50.922;6.704;2023-02-28T16:54:20;11.68;;;6.53;;
2860;SDS011;1438;50.922;6.704;2023-02-28T16:56:47;5.40;;;3.70;;
2860;SDS011;1438;50.922;6.704;2023-02-28T16:59:13;4.40;;;3.17;;
2860;SDS011;1438;50.922;6.704;2023-02-28T17:01:40;3.25;;;2.75;;
2860;SDS011;1438;50.922;6.704;2023-02-28T17:04:08;4.05;;;3.45;;
2860;SDS011;1438;50.922;6.704;2023-02-28T17:06:34;9.00;;;3.75;;
2860;SDS011;1438;50.922;6.704;2023-02-28T17:09:00;4.25;;;3.20;;
2860;SDS011;1438;50.922;6.704;2023-02-28T17:11:26;5.50;;;3.97;;
2860;SDS011;1438;50.922;6.704;2023-02-28T17:13:52;65.55;;;10.45;;
2860;SDS011;1438;50.922;6.704;2023-02-28T17:16:25;66.97;;;10.18;;
2860;SDS011;1438;50.922;6.704;2023-02-28T17:18:54;14.00;;;5.20;;
2860;SDS011;1438;50.922;6.704;2023-02-28T17:21:20;8.15;;;5.03;;
2860;SDS011;1438;50.922;6.704;2023-02-28T17:23:46;5.00;;;4.25;;
2860;SDS011;1438;50.922;6.704;2023-02-28T17:26:13;7.05;;;5.55;;
2860;SDS011;1438;50.922;6.704;2023-02-28T17:28:39;4.03;;;3.50;;
2860;SDS011;1438;50.922;6.704;2023-02-28T17:31:05;17.05;;;3.92;;
2860;SDS011;1438;50.922;6.704;2023-02-28T17:33:31;5.13;;;3.30;;
2860;SDS011;1438;50.922;6.704;2023-02-28T17:35:57;4.57;;;2.73;;
2860;SDS011;1438;50.922;6.704;2023-02-28T17:38:23;6.93;;;3.85;;
2860;SDS011;1438;50.922;6.704;2023-02-28T17:40:49;5.67;;;4.00;;